createdAt,value
2018-08-24T00:02:18.771Z,45.1
2018-08-24T00:07:15.593Z,45.2
2018-08-24T00:12:12.861Z,45.4
2018-08-24T00:17:09.481Z,45.5
2018-08-24T00:22:06.054Z,45.5
2018-08-24T00:27:03.458Z,45.5
2018-08-24T00:32:00.240Z,45.7
2018-08-24T00:36:56.625Z,45.6
2018-08-24T00:41:53.353Z,45.7
2018-08-24T00:46:50.352Z,45.7
2018-08-24T00:51:46.699Z,45.8
2018-08-24T00:56:43.224Z,45.7
2018-08-24T01:01:39.659Z,45.8
2018-08-24T01:06:36.285Z,45.9
2018-08-24T01:11:32.812Z,45.9
2018-08-24T01:16:29.316Z,46
2018-08-24T01:21:26.144Z,46.1
2018-08-24T01:26:26.483Z,46.3
2018-08-24T01:31:22.909Z,46.1
2018-08-24T01:36:18.923Z,46.3
2018-08-24T01:41:15.838Z,46.1
2018-08-24T01:46:12.950Z,46.1
2018-08-24T01:51:09.493Z,46.1
2018-08-24T01:56:06.696Z,46.2
2018-08-24T02:01:03.332Z,46.3
2018-08-24T02:05:59.367Z,46.4
2018-08-24T02:10:56.275Z,46.4
2018-08-24T02:15:53.031Z,46.6
2018-08-24T02:20:49.588Z,46.7
2018-08-24T02:25:47.340Z,46.8
2018-08-24T02:30:44.550Z,46.8
2018-08-24T02:35:41.155Z,46.9
2018-08-24T02:40:37.749Z,47.1
2018-08-24T02:45:34.543Z,47.1
2018-08-24T02:50:31.170Z,47.3
2018-08-24T02:55:28.274Z,47.1
2018-08-24T03:00:25.970Z,47.2
2018-08-24T03:05:22.982Z,47.2
2018-08-24T03:10:19.668Z,47.3
2018-08-24T03:15:16.458Z,47.4
2018-08-24T03:20:13.062Z,47.5
2018-08-24T03:25:09.950Z,47.8
2018-08-24T03:30:06.452Z,47.8
2018-08-24T03:35:03.063Z,48
2018-08-24T03:39:59.558Z,48.1
2018-08-24T03:44:56.243Z,48.3
2018-08-24T03:49:52.911Z,48.6
2018-08-24T03:54:49.600Z,48.6
2018-08-24T03:59:46.671Z,48.8
2018-08-24T04:04:43.196Z,48.9
2018-08-24T04:09:40.469Z,49.2
2018-08-24T04:14:36.448Z,49.4
2018-08-24T04:19:33.301Z,49.6
2018-08-24T04:24:29.904Z,49.5
2018-08-24T04:29:26.489Z,49.6
2018-08-24T04:34:23.343Z,49.9
2018-08-24T04:39:19.502Z,49.9
2018-08-24T04:44:16.086Z,49.9
2018-08-24T04:49:12.775Z,50.1
2018-08-24T04:54:09.687Z,50.2
2018-08-24T04:59:06.606Z,50.4
2018-08-24T05:04:03.258Z,50.4
2018-08-24T05:08:59.872Z,50.7
2018-08-24T05:13:56.442Z,50.6
2018-08-24T05:18:53.344Z,50.7
2018-08-24T05:23:50.137Z,50.7
2018-08-24T05:28:46.806Z,50.8
2018-08-24T05:33:43.566Z,50.7
2018-08-24T05:38:40.265Z,51
2018-08-24T05:43:37.599Z,50.6
2018-08-24T05:48:34.723Z,50.6
2018-08-24T05:53:32.595Z,50.5
2018-08-24T05:58:33.638Z,50.5
2018-08-24T06:03:29.064Z,50.3
2018-08-24T06:08:26.061Z,50.1
2018-08-24T06:13:22.810Z,50
2018-08-24T06:18:19.635Z,50
2018-08-24T06:23:16.306Z,49.9
2018-08-24T06:28:13.715Z,49.5
2018-08-24T06:33:09.748Z,49.5
2018-08-24T06:38:06.401Z,49.7
2018-08-24T06:43:03.269Z,49.5
2018-08-24T06:48:00.014Z,49.3
2018-08-24T06:52:57.094Z,49.4
2018-08-24T06:57:55.622Z,49.3
2018-08-24T07:02:51.980Z,49.2
2018-08-24T07:07:48.832Z,49.1
2018-08-24T07:12:45.500Z,48.8
2018-08-24T07:17:42.922Z,48.6
2018-08-24T07:22:38.871Z,48.3
2018-08-24T07:27:35.877Z,48.2
2018-08-24T07:32:32.434Z,47.8
2018-08-24T07:37:29.019Z,47.8
2018-08-24T07:42:25.326Z,47.6
2018-08-24T07:47:22.597Z,47.3
2018-08-24T07:52:18.953Z,47.2
2018-08-24T07:57:16.091Z,47
2018-08-24T08:02:13.007Z,46.8
2018-08-24T08:07:09.670Z,46.5
2018-08-24T08:12:06.202Z,46.5
2018-08-24T08:17:03.046Z,46.5
2018-08-24T08:21:59.616Z,46.4
2018-08-24T08:26:56.735Z,46.5
2018-08-24T08:31:53.188Z,46.6
2018-08-24T08:36:49.810Z,46.5
2018-08-24T08:41:46.328Z,46.1
2018-08-24T08:46:43.313Z,45.5
2018-08-24T08:51:39.827Z,45.1
2018-08-24T08:56:36.574Z,44.6
2018-08-24T09:01:33.436Z,44.5
2018-08-24T09:06:31.308Z,44
2018-08-24T09:11:27.496Z,43.8
2018-08-24T09:16:24.499Z,43
2018-08-24T09:21:21.969Z,42.1
2018-08-24T09:26:18.594Z,41.6
2018-08-24T09:31:15.140Z,41.5
2018-08-24T09:36:12.137Z,41.1
2018-08-24T09:41:08.652Z,40.8
2018-08-24T09:46:05.481Z,40.1
2018-08-24T09:51:02.386Z,40.1
2018-08-24T09:55:59.354Z,39.7
2018-08-24T10:00:56.110Z,39
2018-08-24T10:05:52.907Z,38.7
2018-08-24T10:10:49.235Z,37.8
2018-08-24T10:15:45.973Z,37.9
2018-08-24T10:20:42.845Z,37.8
2018-08-24T10:25:39.700Z,37.1
2018-08-24T10:30:36.079Z,37.2
2018-08-24T10:35:39.476Z,37.3
2018-08-24T10:40:36.218Z,37.3
2018-08-24T10:45:33.610Z,37.4
2018-08-24T10:50:29.874Z,37.5
2018-08-24T10:55:27.095Z,37.8
2018-08-24T11:00:23.462Z,37.4
2018-08-24T11:05:20.355Z,37.6
2018-08-24T11:10:17.070Z,37.7
2018-08-24T11:15:13.966Z,37.3
2018-08-24T11:20:14.964Z,36.6
2018-08-24T11:25:10.837Z,36.5
2018-08-24T11:30:07.517Z,36.3
2018-08-24T11:35:04.533Z,35.9
2018-08-24T11:40:01.729Z,35.7
2018-08-24T11:44:58.802Z,35.4
2018-08-24T11:49:56.859Z,35.1
2018-08-24T11:54:53.995Z,34.9
2018-08-24T11:59:51.223Z,34.4
2018-08-24T12:04:47.835Z,34.1
2018-08-24T12:09:44.809Z,33.4
2018-08-24T12:14:41.161Z,33.2
2018-08-24T12:19:38.051Z,33.1
2018-08-24T12:24:34.921Z,32.5
2018-08-24T12:29:33.175Z,32.4
2018-08-24T12:34:29.462Z,32.2
2018-08-24T12:39:26.167Z,32.1
2018-08-24T12:44:23.475Z,31.7
2018-08-24T12:49:20.403Z,31.6
2018-08-24T12:54:17.195Z,30.6
2018-08-24T12:59:15.301Z,31.2
2018-08-24T13:04:11.956Z,30.9
2018-08-24T13:09:08.555Z,30.9
2018-08-24T13:14:05.557Z,30.2
2018-08-24T13:19:02.428Z,29.9
2018-08-24T13:23:59.466Z,30.1
2018-08-24T13:28:56.581Z,30.3
2018-08-24T13:33:53.221Z,30.9
2018-08-24T13:38:50.252Z,31.4
2018-08-24T13:43:47.083Z,31.7
2018-08-24T13:48:43.920Z,32.3
2018-08-24T13:53:40.081Z,32.2
2018-08-24T13:58:41.794Z,32.4
2018-08-24T14:03:37.260Z,32.3
2018-08-24T14:08:33.596Z,32.8
2018-08-24T14:13:30.152Z,33.2
2018-08-24T14:18:26.738Z,33.2
2018-08-24T14:23:24.460Z,33.3
2018-08-24T14:28:20.592Z,33.6
2018-08-24T14:33:17.091Z,33.7
2018-08-24T14:38:13.788Z,33.7
2018-08-24T14:43:10.430Z,33.9
2018-08-24T14:48:06.961Z,34.2
2018-08-24T14:53:03.699Z,34.2
2018-08-24T14:58:00.463Z,34.5
2018-08-24T15:02:57.434Z,34.7
2018-08-24T15:07:54.022Z,34.9
2018-08-24T15:12:50.624Z,34.9
2018-08-24T15:17:47.604Z,34.9
2018-08-24T15:22:45.251Z,35
2018-08-24T15:27:42.000Z,35.3
2018-08-24T15:32:38.981Z,35.4
2018-08-24T15:37:35.990Z,35.4
2018-08-24T15:42:32.445Z,35.7
2018-08-24T15:47:28.964Z,35.6
2018-08-24T15:52:25.910Z,35.7
2018-08-24T15:57:23.518Z,35.9
2018-08-24T16:02:20.180Z,36.1
2018-08-24T16:07:17.293Z,36.1
2018-08-24T16:12:14.598Z,36.2
2018-08-24T16:17:11.577Z,36.3
2018-08-24T16:22:09.452Z,36.4
2018-08-24T16:27:05.687Z,36.6
2018-08-24T16:32:02.425Z,36.6
2018-08-24T16:37:03.188Z,36.8
2018-08-24T16:41:59.268Z,37
2018-08-24T16:46:55.687Z,37.2
2018-08-24T16:51:53.020Z,37.6
2018-08-24T16:56:49.721Z,37.7
2018-08-24T17:01:46.814Z,37.9
2018-08-24T17:06:44.953Z,38
2018-08-24T17:11:41.639Z,38.2
2018-08-24T17:16:38.540Z,38.4
2018-08-24T17:21:35.423Z,38.5
2018-08-24T17:26:32.257Z,38.6
2018-08-24T17:31:28.952Z,38.9
2018-08-24T17:36:25.920Z,39
2018-08-24T17:41:22.532Z,39.1
2018-08-24T17:46:19.099Z,39.1
2018-08-24T17:51:15.510Z,39.4
2018-08-24T17:56:12.534Z,39.5
2018-08-24T18:01:09.305Z,39.6
2018-08-24T18:06:06.504Z,39.8
2018-08-24T18:11:03.217Z,40
2018-08-24T18:16:00.583Z,40.2
2018-08-24T18:20:57.225Z,40.4
2018-08-24T18:25:53.943Z,40.6
2018-08-24T18:30:50.450Z,40.9
2018-08-24T18:35:47.217Z,40.9
2018-08-24T18:40:43.759Z,41
2018-08-24T18:45:40.387Z,41
2018-08-24T18:50:37.474Z,41
2018-08-24T18:55:35.269Z,40.9
2018-08-24T19:00:32.025Z,41
2018-08-24T19:05:28.689Z,40.8
2018-08-24T19:10:25.467Z,40.8
2018-08-24T19:15:22.276Z,40.6
2018-08-24T19:20:18.889Z,40.3
2018-08-24T19:25:15.737Z,39.9
2018-08-24T19:30:12.609Z,39.5
2018-08-24T19:35:09.169Z,39.1
2018-08-24T19:40:05.450Z,38.9
2018-08-24T19:45:02.147Z,38.7
2018-08-24T19:49:59.348Z,38.9
2018-08-24T19:54:56.056Z,39.2
2018-08-24T19:59:52.604Z,39.5
2018-08-24T20:04:49.582Z,39.8
2018-08-24T20:09:46.286Z,39.7
2018-08-24T20:14:43.214Z,39.7
2018-08-24T20:19:39.745Z,39.8
2018-08-24T20:24:37.214Z,39.9
2018-08-24T20:29:33.769Z,40.2
2018-08-24T20:34:30.212Z,40.6
2018-08-24T20:39:27.565Z,40.9
2018-08-24T20:44:23.629Z,41.2
2018-08-24T20:49:19.792Z,41.6
2018-08-24T20:54:16.892Z,41.7
2018-08-24T20:59:13.723Z,41.8
2018-08-24T21:04:10.579Z,41.8
2018-08-24T21:09:07.191Z,42.1
2018-08-24T21:14:04.010Z,41.9
2018-08-24T21:19:00.694Z,41.8
2018-08-24T21:23:57.552Z,42
2018-08-24T21:28:54.532Z,41.9
2018-08-24T21:33:55.491Z,41.7
2018-08-24T21:38:51.082Z,41.6
2018-08-24T21:43:47.619Z,41.5
2018-08-24T21:48:44.218Z,41.5
2018-08-24T21:53:41.027Z,41.4
2018-08-24T21:58:37.791Z,41.4
2018-08-24T22:03:34.704Z,41.5
2018-08-24T22:08:32.461Z,41.6
2018-08-24T22:13:29.667Z,41.5
2018-08-24T22:18:26.305Z,41.5
2018-08-24T22:23:23.104Z,41.6
2018-08-24T22:28:19.941Z,41.7
2018-08-24T22:33:16.772Z,41.7
2018-08-24T22:38:15.839Z,41.7
2018-08-24T22:43:13.520Z,41.5
2018-08-24T22:48:10.145Z,41.6
2018-08-24T22:53:07.124Z,41.6
2018-08-24T22:58:03.703Z,41.4
2018-08-24T23:03:00.644Z,41.4
2018-08-24T23:07:57.399Z,41.4
2018-08-24T23:12:54.323Z,41.4
2018-08-24T23:17:53.327Z,41.5
2018-08-24T23:22:49.547Z,41.6
2018-08-24T23:27:45.817Z,41.6
2018-08-24T23:32:42.719Z,41.8
2018-08-24T23:37:41.318Z,41.9
2018-08-24T23:42:37.578Z,42.1
2018-08-24T23:47:37.662Z,42.4
2018-08-24T23:52:33.545Z,42.8
2018-08-24T23:57:30.154Z,43.2
